DLL weather

Baraboo Wisconsin Dells Airport
Baraboo, Wisconsin, United States

Public forecast

Using degrees Fahrenheit for public forecast. Weather courtesy of forecast.io.

Current aviation weather report (METAR) for Baraboo Wisconsin Dells Airport

Retrieved 2019/10/21 00:35 UTC (23 minutes ago):

KDLL 210035Z AUTO 08005KT 10SM CLR 09/07 A2989 RMK AO2 T00860073

Closest aviation forecast (TAF) to Baraboo Wisconsin Dells Airport

Closest forecast is Dane County Regional Truax Field, 29.8 nm (55.1 km) SE. Retrieved 2019-10-21 00:36 UTC (22 minutes ago):

TAF KMSN 202334Z 2100/2124 VRB04KT P6SM BKN250 FM210900 12010G18KT P6SM VCSH BKN030 FM211400 12014G23KT 4SM SHRA BR OVC021 WS020/14050KT FM211800 18014G23KT 6SM -SHRA BKN021 FM212100 22013G23KT P6SM SCT100